sensor_id;sensor_type;location;lat;lon;timestamp;temperature;humidity
2723;DHT22;1369;53.216;10.396;2024-02-14T00:02:17;4.90;99.90
2723;DHT22;1369;53.216;10.396;2024-02-14T00:04:42;5.00;99.90
2723;DHT22;1369;53.216;10.396;2024-02-14T00:07:08;5.00;99.90
2723;DHT22;1369;53.216;10.396;2024-02-14T00:09:34;5.10;99.90
2723;DHT22;1369;53.216;10.396;2024-02-14T00:12:00;5.10;99.90
2723;DHT22;1369;53.216;10.396;2024-02-14T00:14:25;5.20;99.90
2723;DHT22;1369;53.216;10.396;2024-02-14T00:16:51;5.20;99.90
2723;DHT22;1369;53.216;10.396;2024-02-14T00:19:16;5.20;99.90
2723;DHT22;1369;53.216;10.396;2024-02-14T00:21:42;5.20;99.90
2723;DHT22;1369;53.216;10.396;2024-02-14T00:24:08;5.20;99.90
2723;DHT22;1369;53.216;10.396;2024-02-14T00:26:33;5.20;99.90
2723;DHT22;1369;53.216;10.396;2024-02-14T00:29:05;5.20;99.90
2723;DHT22;1369;53.216;10.396;2024-02-14T00:31:30;5.20;99.90
2723;DHT22;1369;53.216;10.396;2024-02-14T00:33:56;5.20;99.90
2723;DHT22;1369;53.216;10.396;2024-02-14T00:36:21;5.20;99.90
2723;DHT22;1369;53.216;10.396;2024-02-14T00:38:47;5.30;99.90
2723;DHT22;1369;53.216;10.396;2024-02-14T00:41:13;5.30;99.90
2723;DHT22;1369;53.216;10.396;2024-02-14T00:43:39;5.20;99.90
2723;DHT22;1369;53.216;10.396;2024-02-14T00:46:05;5.30;99.90
2723;DHT22;1369;53.216;10.396;2024-02-14T00:48:32;5.30;99.90
2723;DHT22;1369;53.216;10.396;2024-02-14T00:50:58;5.30;99.90
2723;DHT22;1369;53.216;10.396;2024-02-14T00:53:24;5.30;99.90
2723;DHT22;1369;53.216;10.396;2024-02-14T00:55:50;5.40;99.90
2723;DHT22;1369;53.216;10.396;2024-02-14T00:58:15;5.30;99.90
2723;DHT22;1369;53.216;10.396;2024-02-14T01:00:41;5.40;99.90
2723;DHT22;1369;53.216;10.396;2024-02-14T01:03:07;5.30;99.90
2723;DHT22;1369;53.216;10.396;2024-02-14T01:05:34;5.40;99.90
2723;DHT22;1369;53.216;10.396;2024-02-14T01:08:00;5.30;99.90
2723;DHT22;1369;53.216;10.396;2024-02-14T01:10:26;5.40;99.90
2723;DHT22;1369;53.216;10.396;2024-02-14T01:12:52;5.40;99.90
2723;DHT22;1369;53.216;10.396;2024-02-14T01:15:18;5.30;99.90
2723;DHT22;1369;53.216;10.396;2024-02-14T01:17:43;5.40;99.90
2723;DHT22;1369;53.216;10.396;2024-02-14T01:20:12;5.40;99.90
2723;DHT22;1369;53.216;10.396;2024-02-14T01:22:40;5.50;99.90
2723;DHT22;1369;53.216;10.396;2024-02-14T01:25:06;5.60;99.90
2723;DHT22;1369;53.216;10.396;2024-02-14T01:27:31;5.60;99.90
2723;DHT22;1369;53.216;10.396;2024-02-14T01:29:57;5.60;99.90
2723;DHT22;1369;53.216;10.396;2024-02-14T01:32:23;5.60;99.90
2723;DHT22;1369;53.216;10.396;2024-02-14T01:34:49;5.60;99.90
2723;DHT22;1369;53.216;10.396;2024-02-14T01:37:15;5.70;99.90
2723;DHT22;1369;53.216;10.396;2024-02-14T01:39:40;5.70;99.90
2723;DHT22;1369;53.216;10.396;2024-02-14T01:42:06;5.70;99.90
2723;DHT22;1369;53.216;10.396;2024-02-14T01:44:33;5.80;99.90
2723;DHT22;1369;53.216;10.396;2024-02-14T01:47:00;5.70;99.90
2723;DHT22;1369;53.216;10.396;2024-02-14T01:49:26;5.70;99.90
2723;DHT22;1369;53.216;10.396;2024-02-14T01:51:55;5.70;99.90
2723;DHT22;1369;53.216;10.396;2024-02-14T01:54:25;5.60;99.90
2723;DHT22;1369;53.216;10.396;2024-02-14T01:56:51;5.70;99.90
2723;DHT22;1369;53.216;10.396;2024-02-14T01:59:17;5.50;99.90
2723;DHT22;1369;53.216;10.396;2024-02-14T02:01:44;5.60;99.90
2723;DHT22;1369;53.216;10.396;2024-02-14T02:04:12;5.60;99.90
2723;DHT22;1369;53.216;10.396;2024-02-14T02:06:38;5.60;99.90
2723;DHT22;1369;53.216;10.396;2024-02-14T02:09:07;5.60;99.90
2723;DHT22;1369;53.216;10.396;2024-02-14T02:11:46;5.60;99.90
2723;DHT22;1369;53.216;10.396;2024-02-14T02:14:13;5.60;99.90
2723;DHT22;1369;53.216;10.396;2024-02-14T02:16:38;5.50;99.90
2723;DHT22;1369;53.216;10.396;2024-02-14T02:19:04;5.50;99.90
2723;DHT22;1369;53.216;10.396;2024-02-14T02:21:34;5.50;99.90
2723;DHT22;1369;53.216;10.396;2024-02-14T02:24:00;5.50;99.90
2723;DHT22;1369;53.216;10.396;2024-02-14T02:26:27;5.50;99.90
2723;DHT22;1369;53.216;10.396;2024-02-14T02:28:53;5.60;99.90
2723;DHT22;1369;53.216;10.396;2024-02-14T02:31:20;5.50;99.90
2723;DHT22;1369;53.216;10.396;2024-02-14T02:33:46;5.50;99.90
2723;DHT22;1369;53.216;10.396;2024-02-14T02:36:12;5.50;99.90
2723;DHT22;1369;53.216;10.396;2024-02-14T02:38:38;5.50;99.90
2723;DHT22;1369;53.216;10.396;2024-02-14T02:41:04;5.50;99.90
2723;DHT22;1369;53.216;10.396;2024-02-14T02:43:32;5.50;99.90
2723;DHT22;1369;53.216;10.396;2024-02-14T02:45:57;5.50;99.90
2723;DHT22;1369;53.216;10.396;2024-02-14T02:48:23;5.50;99.90
2723;DHT22;1369;53.216;10.396;2024-02-14T02:50:49;5.50;99.90
2723;DHT22;1369;53.216;10.396;2024-02-14T02:53:15;5.50;99.90
2723;DHT22;1369;53.216;10.396;2024-02-14T02:55:41;5.40;99.90
2723;DHT22;1369;53.216;10.396;2024-02-14T02:58:07;5.40;99.90
2723;DHT22;1369;53.216;10.396;2024-02-14T03:00:33;5.40;99.90
2723;DHT22;1369;53.216;10.396;2024-02-14T03:02:59;5.40;99.90
2723;DHT22;1369;53.216;10.396;2024-02-14T03:05:25;5.30;99.90
2723;DHT22;1369;53.216;10.396;2024-02-14T03:07:51;5.30;99.90
2723;DHT22;1369;53.216;10.396;2024-02-14T03:10:18;5.30;99.90
2723;DHT22;1369;53.216;10.396;2024-02-14T03:12:50;5.30;99.90
2723;DHT22;1369;53.216;10.396;2024-02-14T03:15:16;5.40;99.90
2723;DHT22;1369;53.216;10.396;2024-02-14T03:17:42;5.40;99.90
2723;DHT22;1369;53.216;10.396;2024-02-14T03:20:08;5.40;99.90
2723;DHT22;1369;53.216;10.396;2024-02-14T03:22:40;5.40;99.90
2723;DHT22;1369;53.216;10.396;2024-02-14T03:25:16;5.40;99.90
2723;DHT22;1369;53.216;10.396;2024-02-14T03:27:42;5.40;99.90
2723;DHT22;1369;53.216;10.396;2024-02-14T03:30:11;5.40;99.90
2723;DHT22;1369;53.216;10.396;2024-02-14T03:32:38;5.40;99.90
2723;DHT22;1369;53.216;10.396;2024-02-14T03:35:04;5.50;99.90
2723;DHT22;1369;53.216;10.396;2024-02-14T03:37:32;5.50;99.90
2723;DHT22;1369;53.216;10.396;2024-02-14T03:39:57;5.50;99.90
2723;DHT22;1369;53.216;10.396;2024-02-14T03:42:23;5.40;99.90
2723;DHT22;1369;53.216;10.396;2024-02-14T03:44:51;5.40;99.90
2723;DHT22;1369;53.216;10.396;2024-02-14T03:47:18;5.40;99.90
2723;DHT22;1369;53.216;10.396;2024-02-14T03:49:43;5.40;99.90
2723;DHT22;1369;53.216;10.396;2024-02-14T03:52:09;5.40;99.90
2723;DHT22;1369;53.216;10.396;2024-02-14T03:54:36;5.40;99.90
2723;DHT22;1369;53.216;10.396;2024-02-14T03:57:02;5.30;99.90
2723;DHT22;1369;53.216;10.396;2024-02-14T03:59:30;5.40;99.90
2723;DHT22;1369;53.216;10.396;2024-02-14T04:01:56;5.30;99.90
2723;DHT22;1369;53.216;10.396;2024-02-14T04:04:23;5.30;99.90
2723;DHT22;1369;53.216;10.396;2024-02-14T04:06:49;5.30;99.90
2723;DHT22;1369;53.216;10.396;2024-02-14T04:09:15;5.30;99.90
2723;DHT22;1369;53.216;10.396;2024-02-14T04:11:41;5.30;99.90
2723;DHT22;1369;53.216;10.396;2024-02-14T04:14:07;5.30;99.90
2723;DHT22;1369;53.216;10.396;2024-02-14T04:16:32;5.30;99.90
2723;DHT22;1369;53.216;10.396;2024-02-14T04:18:58;5.40;99.90
2723;DHT22;1369;53.216;10.396;2024-02-14T04:21:24;5.40;99.90
2723;DHT22;1369;53.216;10.396;2024-02-14T04:23:51;5.40;99.90
2723;DHT22;1369;53.216;10.396;2024-02-14T04:26:22;5.40;99.90
2723;DHT22;1369;53.216;10.396;2024-02-14T04:28:48;5.40;99.90
2723;DHT22;1369;53.216;10.396;2024-02-14T04:31:14;5.40;99.90
2723;DHT22;1369;53.216;10.396;2024-02-14T04:33:39;5.50;99.90
2723;DHT22;1369;53.216;10.396;2024-02-14T04:36:05;5.50;99.90
2723;DHT22;1369;53.216;10.396;2024-02-14T04:38:32;5.50;99.90
2723;DHT22;1369;53.216;10.396;2024-02-14T04:40:58;5.50;99.90
2723;DHT22;1369;53.216;10.396;2024-02-14T04:43:25;5.50;99.90
2723;DHT22;1369;53.216;10.396;2024-02-14T04:45:52;5.50;99.90
2723;DHT22;1369;53.216;10.396;2024-02-14T04:48:17;5.50;99.90
2723;DHT22;1369;53.216;10.396;2024-02-14T04:50:43;5.60;99.90
2723;DHT22;1369;53.216;10.396;2024-02-14T04:53:09;5.60;99.90
2723;DHT22;1369;53.216;10.396;2024-02-14T04:55:34;5.60;99.90
2723;DHT22;1369;53.216;10.396;2024-02-14T04:58:02;5.60;99.90
2723;DHT22;1369;53.216;10.396;2024-02-14T05:00:28;5.60;99.90
2723;DHT22;1369;53.216;10.396;2024-02-14T05:05:28;5.60;99.90
2723;DHT22;1369;53.216;10.396;2024-02-14T05:07:54;5.60;99.90
2723;DHT22;1369;53.216;10.396;2024-02-14T05:10:20;5.60;99.90
2723;DHT22;1369;53.216;10.396;2024-02-14T05:12:45;5.60;99.90
2723;DHT22;1369;53.216;10.396;2024-02-14T05:15:11;5.60;99.90
2723;DHT22;1369;53.216;10.396;2024-02-14T05:17:38;5.60;99.90
2723;DHT22;1369;53.216;10.396;2024-02-14T05:20:10;5.70;99.90
2723;DHT22;1369;53.216;10.396;2024-02-14T05:22:39;5.60;99.90
2723;DHT22;1369;53.216;10.396;2024-02-14T05:25:05;5.70;99.90
2723;DHT22;1369;53.216;10.396;2024-02-14T05:27:33;5.70;99.90
2723;DHT22;1369;53.216;10.396;2024-02-14T05:29:59;5.70;99.90
2723;DHT22;1369;53.216;10.396;2024-02-14T05:32:24;5.80;99.90
2723;DHT22;1369;53.216;10.396;2024-02-14T05:34:53;5.80;99.90
2723;DHT22;1369;53.216;10.396;2024-02-14T05:37:19;5.80;99.90
2723;DHT22;1369;53.216;10.396;2024-02-14T05:39:45;5.80;99.90
2723;DHT22;1369;53.216;10.396;2024-02-14T05:42:11;5.80;99.90
2723;DHT22;1369;53.216;10.396;2024-02-14T05:44:38;5.80;99.90
2723;DHT22;1369;53.216;10.396;2024-02-14T05:47:05;5.80;99.90
2723;DHT22;1369;53.216;10.396;2024-02-14T05:49:31;5.90;99.90
2723;DHT22;1369;53.216;10.396;2024-02-14T05:51:57;5.90;99.90
2723;DHT22;1369;53.216;10.396;2024-02-14T05:54:22;5.90;99.90
2723;DHT22;1369;53.216;10.396;2024-02-14T05:56:48;5.90;99.90
2723;DHT22;1369;53.216;10.396;2024-02-14T05:59:13;5.90;99.90
2723;DHT22;1369;53.216;10.396;2024-02-14T06:01:39;5.90;99.90
2723;DHT22;1369;53.216;10.396;2024-02-14T06:04:05;5.90;99.90
2723;DHT22;1369;53.216;10.396;2024-02-14T06:06:30;5.90;99.90
2723;DHT22;1369;53.216;10.396;2024-02-14T06:08:56;5.90;99.90
2723;DHT22;1369;53.216;10.396;2024-02-14T06:11:23;5.90;99.90
2723;DHT22;1369;53.216;10.396;2024-02-14T06:13:48;5.90;99.90
2723;DHT22;1369;53.216;10.396;2024-02-14T06:16:14;5.90;99.90
2723;DHT22;1369;53.216;10.396;2024-02-14T06:18:40;5.90;99.90
2723;DHT22;1369;53.216;10.396;2024-02-14T06:21:06;5.90;99.90
2723;DHT22;1369;53.216;10.396;2024-02-14T06:23:32;6.00;99.90
2723;DHT22;1369;53.216;10.396;2024-02-14T06:25:58;6.00;99.90
2723;DHT22;1369;53.216;10.396;2024-02-14T06:28:24;6.00;99.90
2723;DHT22;1369;53.216;10.396;2024-02-14T06:30:49;6.00;99.90
2723;DHT22;1369;53.216;10.396;2024-02-14T06:33:15;6.00;99.90
2723;DHT22;1369;53.216;10.396;2024-02-14T06:35:41;6.00;99.90
2723;DHT22;1369;53.216;10.396;2024-02-14T06:38:06;6.00;99.90
2723;DHT22;1369;53.216;10.396;2024-02-14T06:40:32;6.00;99.90
2723;DHT22;1369;53.216;10.396;2024-02-14T06:42:58;6.00;99.90
2723;DHT22;1369;53.216;10.396;2024-02-14T06:45:26;6.00;99.90
2723;DHT22;1369;53.216;10.396;2024-02-14T06:47:53;6.00;99.90
2723;DHT22;1369;53.216;10.396;2024-02-14T06:50:19;6.00;99.90
2723;DHT22;1369;53.216;10.396;2024-02-14T06:52:45;6.10;99.90
2723;DHT22;1369;53.216;10.396;2024-02-14T06:55:11;6.10;99.90
2723;DHT22;1369;53.216;10.396;2024-02-14T06:57:37;6.10;99.90
2723;DHT22;1369;53.216;10.396;2024-02-14T07:00:04;6.20;99.90
2723;DHT22;1369;53.216;10.396;2024-02-14T07:02:31;6.20;99.90
2723;DHT22;1369;53.216;10.396;2024-02-14T07:04:57;6.20;99.90
2723;DHT22;1369;53.216;10.396;2024-02-14T07:07:23;6.20;99.90
2723;DHT22;1369;53.216;10.396;2024-02-14T07:09:48;6.20;99.90
2723;DHT22;1369;53.216;10.396;2024-02-14T07:12:14;6.20;99.90
2723;DHT22;1369;53.216;10.396;2024-02-14T07:14:40;6.20;99.90
2723;DHT22;1369;53.216;10.396;2024-02-14T07:17:07;6.30;99.90
2723;DHT22;1369;53.216;10.396;2024-02-14T07:19:32;6.30;99.90
2723;DHT22;1369;53.216;10.396;2024-02-14T07:21:58;6.30;99.90
2723;DHT22;1369;53.216;10.396;2024-02-14T07:24:24;6.30;99.90
2723;DHT22;1369;53.216;10.396;2024-02-14T07:26:49;6.30;99.90
2723;DHT22;1369;53.216;10.396;2024-02-14T07:29:15;6.30;99.90
2723;DHT22;1369;53.216;10.396;2024-02-14T07:31:41;6.30;99.90
2723;DHT22;1369;53.216;10.396;2024-02-14T07:34:07;6.30;99.90
2723;DHT22;1369;53.216;10.396;2024-02-14T07:36:32;6.30;99.90
2723;DHT22;1369;53.216;10.396;2024-02-14T07:38:58;6.40;99.90
2723;DHT22;1369;53.216;10.396;2024-02-14T07:41:24;6.40;99.90
2723;DHT22;1369;53.216;10.396;2024-02-14T07:43:50;6.50;99.90
2723;DHT22;1369;53.216;10.396;2024-02-14T07:46:19;6.40;99.90
2723;DHT22;1369;53.216;10.396;2024-02-14T07:48:45;6.40;99.90
2723;DHT22;1369;53.216;10.396;2024-02-14T07:51:12;6.50;99.90
2723;DHT22;1369;53.216;10.396;2024-02-14T07:53:38;6.50;99.90
2723;DHT22;1369;53.216;10.396;2024-02-14T07:56:04;6.50;99.90
2723;DHT22;1369;53.216;10.396;2024-02-14T07:58:29;6.50;99.90
2723;DHT22;1369;53.216;10.396;2024-02-14T08:00:55;6.50;99.90
2723;DHT22;1369;53.216;10.396;2024-02-14T08:03:21;6.60;99.90
2723;DHT22;1369;53.216;10.396;2024-02-14T08:05:47;6.60;99.90
2723;DHT22;1369;53.216;10.396;2024-02-14T08:08:13;6.70;99.90
2723;DHT22;1369;53.216;10.396;2024-02-14T08:10:38;6.70;99.90
2723;DHT22;1369;53.216;10.396;2024-02-14T08:13:04;6.70;99.90
2723;DHT22;1369;53.216;10.396;2024-02-14T08:15:30;6.80;99.90
2723;DHT22;1369;53.216;10.396;2024-02-14T08:17:56;6.80;99.90
2723;DHT22;1369;53.216;10.396;2024-02-14T08:20:22;6.80;99.90
2723;DHT22;1369;53.216;10.396;2024-02-14T08:22:49;6.90;99.90
2723;DHT22;1369;53.216;10.396;2024-02-14T08:25:15;7.00;99.90
2723;DHT22;1369;53.216;10.396;2024-02-14T08:27:41;7.00;99.90
2723;DHT22;1369;53.216;10.396;2024-02-14T08:30:07;7.10;99.90
2723;DHT22;1369;53.216;10.396;2024-02-14T08:32:34;7.10;99.90
2723;DHT22;1369;53.216;10.396;2024-02-14T08:35:00;7.20;99.90
2723;DHT22;1369;53.216;10.396;2024-02-14T08:37:27;7.20;99.90
2723;DHT22;1369;53.216;10.396;2024-02-14T08:39:53;7.30;99.90
2723;DHT22;1369;53.216;10.396;2024-02-14T08:42:19;7.30;99.90
2723;DHT22;1369;53.216;10.396;2024-02-14T08:44:45;7.40;99.90
2723;DHT22;1369;53.216;10.396;2024-02-14T08:47:10;7.40;99.90
2723;DHT22;1369;53.216;10.396;2024-02-14T08:49:36;7.50;99.90
2723;DHT22;1369;53.216;10.396;2024-02-14T08:52:02;7.50;99.90
2723;DHT22;1369;53.216;10.396;2024-02-14T08:54:28;7.60;99.90
2723;DHT22;1369;53.216;10.396;2024-02-14T08:56:54;7.70;99.90
2723;DHT22;1369;53.216;10.396;2024-02-14T08:59:21;7.80;99.90
2723;DHT22;1369;53.216;10.396;2024-02-14T09:01:47;7.80;99.90
2723;DHT22;1369;53.216;10.396;2024-02-14T09:04:14;7.90;99.90
2723;DHT22;1369;53.216;10.396;2024-02-14T09:06:39;8.00;99.90
2723;DHT22;1369;53.216;10.396;2024-02-14T09:09:06;8.00;99.90
2723;DHT22;1369;53.216;10.396;2024-02-14T09:11:32;8.10;99.90
2723;DHT22;1369;53.216;10.396;2024-02-14T09:13:58;8.20;99.90
2723;DHT22;1369;53.216;10.396;2024-02-14T09:16:30;8.20;99.90
2723;DHT22;1369;53.216;10.396;2024-02-14T09:18:56;8.30;99.90
2723;DHT22;1369;53.216;10.396;2024-02-14T09:21:22;8.40;99.90
2723;DHT22;1369;53.216;10.396;2024-02-14T09:23:48;8.60;99.90
2723;DHT22;1369;53.216;10.396;2024-02-14T09:26:14;8.70;99.90
2723;DHT22;1369;53.216;10.396;2024-02-14T09:28:42;8.90;99.90
2723;DHT22;1369;53.216;10.396;2024-02-14T09:31:08;8.90;99.90
2723;DHT22;1369;53.216;10.396;2024-02-14T09:33:37;9.00;99.90
2723;DHT22;1369;53.216;10.396;2024-02-14T09:36:03;9.00;99.90
2723;DHT22;1369;53.216;10.396;2024-02-14T09:38:30;9.10;99.90
2723;DHT22;1369;53.216;10.396;2024-02-14T09:41:11;9.00;99.90
2723;DHT22;1369;53.216;10.396;2024-02-14T09:43:43;9.00;99.90
2723;DHT22;1369;53.216;10.396;2024-02-14T09:46:14;8.90;99.90
2723;DHT22;1369;53.216;10.396;2024-02-14T09:48:44;9.00;99.90
2723;DHT22;1369;53.216;10.396;2024-02-14T09:51:11;9.00;99.90
2723;DHT22;1369;53.216;10.396;2024-02-14T09:53:39;9.10;99.90
2723;DHT22;1369;53.216;10.396;2024-02-14T09:56:05;9.10;99.90
2723;DHT22;1369;53.216;10.396;2024-02-14T09:58:31;9.20;99.90
2723;DHT22;1369;53.216;10.396;2024-02-14T10:00:57;9.20;99.90
2723;DHT22;1369;53.216;10.396;2024-02-14T10:03:23;9.30;99.90
2723;DHT22;1369;53.216;10.396;2024-02-14T10:05:48;9.30;99.90
2723;DHT22;1369;53.216;10.396;2024-02-14T10:08:14;9.30;99.90
2723;DHT22;1369;53.216;10.396;2024-02-14T10:10:40;9.40;99.90
2723;DHT22;1369;53.216;10.396;2024-02-14T10:13:06;9.50;99.90
2723;DHT22;1369;53.216;10.396;2024-02-14T10:15:33;9.50;99.90
2723;DHT22;1369;53.216;10.396;2024-02-14T10:17:59;9.60;99.90
2723;DHT22;1369;53.216;10.396;2024-02-14T10:20:25;9.60;99.90
2723;DHT22;1369;53.216;10.396;2024-02-14T10:22:59;9.60;99.90
2723;DHT22;1369;53.216;10.396;2024-02-14T10:25:25;9.50;99.90
2723;DHT22;1369;53.216;10.396;2024-02-14T10:27:51;9.50;99.90
2723;DHT22;1369;53.216;10.396;2024-02-14T10:30:17;9.50;99.90
2723;DHT22;1369;53.216;10.396;2024-02-14T10:32:42;9.50;99.90
2723;DHT22;1369;53.216;10.396;2024-02-14T10:35:13;9.50;99.90
2723;DHT22;1369;53.216;10.396;2024-02-14T10:37:39;9.50;99.90
2723;DHT22;1369;53.216;10.396;2024-02-14T10:40:06;9.50;99.90
2723;DHT22;1369;53.216;10.396;2024-02-14T10:42:32;9.50;99.90
2723;DHT22;1369;53.216;10.396;2024-02-14T10:44:59;9.60;99.90
2723;DHT22;1369;53.216;10.396;2024-02-14T10:47:31;9.60;99.90
2723;DHT22;1369;53.216;10.396;2024-02-14T10:50:00;9.60;99.90
2723;DHT22;1369;53.216;10.396;2024-02-14T10:52:31;9.70;99.90
2723;DHT22;1369;53.216;10.396;2024-02-14T10:55:01;9.70;99.90
2723;DHT22;1369;53.216;10.396;2024-02-14T10:57:27;9.70;99.90
2723;DHT22;1369;53.216;10.396;2024-02-14T10:59:55;9.70;99.90
2723;DHT22;1369;53.216;10.396;2024-02-14T11:02:22;9.80;99.90
2723;DHT22;1369;53.216;10.396;2024-02-14T11:04:49;9.80;99.90
2723;DHT22;1369;53.216;10.396;2024-02-14T11:07:20;9.80;99.90
2723;DHT22;1369;53.216;10.396;2024-02-14T11:09:59;9.90;99.90
2723;DHT22;1369;53.216;10.396;2024-02-14T11:12:25;9.90;99.90
2723;DHT22;1369;53.216;10.396;2024-02-14T11:14:51;10.00;99.90
2723;DHT22;1369;53.216;10.396;2024-02-14T11:17:24;10.10;99.90
2723;DHT22;1369;53.216;10.396;2024-02-14T11:19:52;10.10;99.90
2723;DHT22;1369;53.216;10.396;2024-02-14T11:22:19;10.20;99.90
2723;DHT22;1369;53.216;10.396;2024-02-14T11:24:48;10.30;99.90
2723;DHT22;1369;53.216;10.396;2024-02-14T11:27:14;10.30;99.90
2723;DHT22;1369;53.216;10.396;2024-02-14T11:29:52;10.30;99.90
2723;DHT22;1369;53.216;10.396;2024-02-14T11:32:18;10.40;99.90
2723;DHT22;1369;53.216;10.396;2024-02-14T11:35:05;10.50;99.90
2723;DHT22;1369;53.216;10.396;2024-02-14T11:37:31;10.50;99.90
2723;DHT22;1369;53.216;10.396;2024-02-14T11:39:57;10.50;99.90
2723;DHT22;1369;53.216;10.396;2024-02-14T11:42:24;10.50;99.90
2723;DHT22;1369;53.216;10.396;2024-02-14T11:44:50;10.60;99.90
2723;DHT22;1369;53.216;10.396;2024-02-14T11:47:16;10.50;99.90
2723;DHT22;1369;53.216;10.396;2024-02-14T11:49:41;10.60;99.90
2723;DHT22;1369;53.216;10.396;2024-02-14T11:52:14;10.60;99.90
2723;DHT22;1369;53.216;10.396;2024-02-14T11:54:40;10.60;99.90
2723;DHT22;1369;53.216;10.396;2024-02-14T11:57:11;10.60;99.90
2723;DHT22;1369;53.216;10.396;2024-02-14T11:59:36;10.60;99.90
2723;DHT22;1369;53.216;10.396;2024-02-14T12:02:03;10.60;99.90
2723;DHT22;1369;53.216;10.396;2024-02-14T12:04:29;10.60;99.90
2723;DHT22;1369;53.216;10.396;2024-02-14T12:06:55;10.60;99.90
2723;DHT22;1369;53.216;10.396;2024-02-14T12:09:20;10.50;99.90
2723;DHT22;1369;53.216;10.396;2024-02-14T12:11:47;10.50;99.90
2723;DHT22;1369;53.216;10.396;2024-02-14T12:14:13;10.50;99.90
2723;DHT22;1369;53.216;10.396;2024-02-14T12:16:39;10.50;99.90
2723;DHT22;1369;53.216;10.396;2024-02-14T12:19:10;10.50;99.90
2723;DHT22;1369;53.216;10.396;2024-02-14T12:21:39;10.50;99.90
2723;DHT22;1369;53.216;10.396;2024-02-14T12:24:09;10.50;99.90
2723;DHT22;1369;53.216;10.396;2024-02-14T12:26:36;10.50;99.90
2723;DHT22;1369;53.216;10.396;2024-02-14T12:29:03;10.50;99.90
2723;DHT22;1369;53.216;10.396;2024-02-14T12:31:33;10.50;99.90
2723;DHT22;1369;53.216;10.396;2024-02-14T12:33:59;10.50;99.90
2723;DHT22;1369;53.216;10.396;2024-02-14T12:36:31;10.50;99.90
2723;DHT22;1369;53.216;10.396;2024-02-14T12:38:59;10.50;99.90
2723;DHT22;1369;53.216;10.396;2024-02-14T12:41:28;10.50;99.90
2723;DHT22;1369;53.216;10.396;2024-02-14T12:43:55;10.50;99.90
2723;DHT22;1369;53.216;10.396;2024-02-14T12:46:21;10.50;99.90
2723;DHT22;1369;53.216;10.396;2024-02-14T12:48:47;10.60;99.90
2723;DHT22;1369;53.216;10.396;2024-02-14T12:51:14;10.60;99.90
2723;DHT22;1369;53.216;10.396;2024-02-14T12:53:40;10.60;99.90
2723;DHT22;1369;53.216;10.396;2024-02-14T12:56:07;10.60;99.90
2723;DHT22;1369;53.216;10.396;2024-02-14T12:58:33;10.60;99.90
2723;DHT22;1369;53.216;10.396;2024-02-14T13:00:58;10.60;99.90
2723;DHT22;1369;53.216;10.396;2024-02-14T13:03:24;10.70;99.90
2723;DHT22;1369;53.216;10.396;2024-02-14T13:05:50;10.70;99.90
2723;DHT22;1369;53.216;10.396;2024-02-14T13:08:20;10.80;99.90
2723;DHT22;1369;53.216;10.396;2024-02-14T13:10:46;10.80;99.90
2723;DHT22;1369;53.216;10.396;2024-02-14T13:13:13;10.80;99.90
2723;DHT22;1369;53.216;10.396;2024-02-14T13:15:40;10.90;99.90
2723;DHT22;1369;53.216;10.396;2024-02-14T13:18:08;10.90;99.90
2723;DHT22;1369;53.216;10.396;2024-02-14T13:20:33;10.90;99.90
2723;DHT22;1369;53.216;10.396;2024-02-14T13:22:59;10.90;99.90
2723;DHT22;1369;53.216;10.396;2024-02-14T13:25:25;10.90;99.90
2723;DHT22;1369;53.216;10.396;2024-02-14T13:27:51;10.90;99.90
2723;DHT22;1369;53.216;10.396;2024-02-14T13:30:17;10.90;99.90
2723;DHT22;1369;53.216;10.396;2024-02-14T13:32:44;10.90;99.90
2723;DHT22;1369;53.216;10.396;2024-02-14T13:35:10;10.90;99.90
2723;DHT22;1369;53.216;10.396;2024-02-14T13:37:37;10.90;99.90
2723;DHT22;1369;53.216;10.396;2024-02-14T13:40:02;10.90;99.90
2723;DHT22;1369;53.216;10.396;2024-02-14T13:42:30;10.90;99.90
2723;DHT22;1369;53.216;10.396;2024-02-14T13:44:56;10.90;99.90
2723;DHT22;1369;53.216;10.396;2024-02-14T13:47:21;10.90;99.90
2723;DHT22;1369;53.216;10.396;2024-02-14T13:49:48;11.00;99.90
2723;DHT22;1369;53.216;10.396;2024-02-14T13:52:14;10.90;99.90
2723;DHT22;1369;53.216;10.396;2024-02-14T13:54:41;10.90;99.90
2723;DHT22;1369;53.216;10.396;2024-02-14T13:57:08;10.90;99.90
2723;DHT22;1369;53.216;10.396;2024-02-14T13:59:33;10.90;99.90
2723;DHT22;1369;53.216;10.396;2024-02-14T14:01:59;10.90;99.90
2723;DHT22;1369;53.216;10.396;2024-02-14T14:04:25;10.90;99.90
2723;DHT22;1369;53.216;10.396;2024-02-14T14:06:51;10.90;99.90
2723;DHT22;1369;53.216;10.396;2024-02-14T14:09:17;11.00;99.90
2723;DHT22;1369;53.216;10.396;2024-02-14T14:11:42;11.00;99.90
2723;DHT22;1369;53.216;10.396;2024-02-14T14:14:08;11.00;99.90
2723;DHT22;1369;53.216;10.396;2024-02-14T14:16:36;11.00;99.90
2723;DHT22;1369;53.216;10.396;2024-02-14T14:19:02;11.00;99.90
2723;DHT22;1369;53.216;10.396;2024-02-14T14:21:29;11.00;99.90
2723;DHT22;1369;53.216;10.396;2024-02-14T14:23:54;11.00;99.90
2723;DHT22;1369;53.216;10.396;2024-02-14T14:26:20;10.90;99.90
2723;DHT22;1369;53.216;10.396;2024-02-14T14:28:46;10.90;99.90
2723;DHT22;1369;53.216;10.396;2024-02-14T14:31:12;10.90;99.90
2723;DHT22;1369;53.216;10.396;2024-02-14T14:33:38;10.90;99.90
2723;DHT22;1369;53.216;10.396;2024-02-14T14:36:04;10.90;99.90
2723;DHT22;1369;53.216;10.396;2024-02-14T14:38:30;10.90;99.90
2723;DHT22;1369;53.216;10.396;2024-02-14T14:40:57;10.90;99.90
2723;DHT22;1369;53.216;10.396;2024-02-14T14:43:24;10.90;99.90
2723;DHT22;1369;53.216;10.396;2024-02-14T14:45:50;10.90;99.90
2723;DHT22;1369;53.216;10.396;2024-02-14T14:48:16;10.90;99.90
2723;DHT22;1369;53.216;10.396;2024-02-14T14:50:42;10.90;99.90
2723;DHT22;1369;53.216;10.396;2024-02-14T14:53:09;10.90;99.90
2723;DHT22;1369;53.216;10.396;2024-02-14T14:55:54;10.90;99.90
2723;DHT22;1369;53.216;10.396;2024-02-14T14:58:22;10.80;99.90
2723;DHT22;1369;53.216;10.396;2024-02-14T15:00:49;10.80;99.90
2723;DHT22;1369;53.216;10.396;2024-02-14T15:03:14;10.80;99.90
2723;DHT22;1369;53.216;10.396;2024-02-14T15:05:40;10.90;99.90
2723;DHT22;1369;53.216;10.396;2024-02-14T15:08:07;10.90;99.90
2723;DHT22;1369;53.216;10.396;2024-02-14T15:10:36;10.90;99.90
2723;DHT22;1369;53.216;10.396;2024-02-14T15:13:07;10.90;99.90
2723;DHT22;1369;53.216;10.396;2024-02-14T15:15:39;10.90;99.90
2723;DHT22;1369;53.216;10.396;2024-02-14T15:18:05;10.90;99.90
2723;DHT22;1369;53.216;10.396;2024-02-14T15:20:31;10.90;99.90
2723;DHT22;1369;53.216;10.396;2024-02-14T15:22:57;10.80;99.90
2723;DHT22;1369;53.216;10.396;2024-02-14T15:25:22;10.80;99.90
2723;DHT22;1369;53.216;10.396;2024-02-14T15:27:51;10.80;99.90
2723;DHT22;1369;53.216;10.396;2024-02-14T15:30:24;10.80;99.90
2723;DHT22;1369;53.216;10.396;2024-02-14T15:33:09;10.90;99.90
2723;DHT22;1369;53.216;10.396;2024-02-14T15:35:51;10.90;99.90
2723;DHT22;1369;53.216;10.396;2024-02-14T15:38:17;10.90;99.90
2723;DHT22;1369;53.216;10.396;2024-02-14T15:40:47;10.90;99.90
2723;DHT22;1369;53.216;10.396;2024-02-14T15:43:16;10.80;99.90
2723;DHT22;1369;53.216;10.396;2024-02-14T15:45:42;10.80;99.90
2723;DHT22;1369;53.216;10.396;2024-02-14T15:48:08;10.80;99.90
2723;DHT22;1369;53.216;10.396;2024-02-14T15:50:35;10.80;99.90
2723;DHT22;1369;53.216;10.396;2024-02-14T15:53:04;10.80;99.90
2723;DHT22;1369;53.216;10.396;2024-02-14T15:55:33;10.80;99.90
2723;DHT22;1369;53.216;10.396;2024-02-14T15:58:01;10.80;99.90